Archival Weather

Václav Havel Intl Apt

Prague, Czechia (LKPR)

Report from: Monday, May 29, 2023 5:00 PM CEST
Current time: Sunday, July 14, 2024 1:26 PM CEST

Current weather – Weather history – Daily summaries
Weather forecast

Temperature22.0°C (71.6°F)
Dew point4.0°C (39.2°F)
Winds 6 kts (3.1 m/s, 6.9 mph) Vrb
Winds variableWinds variable from West-Northwest (290°) to East-Northeast (60°)
Clouds Sky clear
Altimeter30.09 in.Hg (1019 mB)
Relative humidity31 %
Density altitude745 ft. (227 m)
Remarks Ceiling and visibility OK
No significant changes expected in the next two hours
Flight conditions Visual Meteorological Conditions
Raw dataLKPR 291500Z 01006KT 290V060 CAVOK 22/04 Q1019 NOSIG
An error has occurred. This application may no longer respond until reloaded. Reload 🗙